West Woods, Connecticut
Current Conditions -  °F | °C
As of 3:12 AM on Sunday 21 Dec 2014 (Local Time) from KPOU Reporting Station
Light Snow Light Snow  
Wind Chill: 29°   Ceiling: 2100
Heat Index: 29°   Visibility: 4mi
Dew Point: 24°   Wind: 0mph
Humidity: 82%   Direction: NA
Pressure: 30.28"   Gusts: NA
Location:  41.8554°N, 73.4421°W
Report Text: KPOU 210812Z AUTO 00000KT 4SM -SN OVC021 M02/M04 A3028 RMK AO2 P0000 T10171044 TSNO
Loading
Personal Weather Stations






























Interactive Weather Map New forecast layout! Learn more

10-Day Weather Forecast

Advertisements
Track Severe Weather on mobile